sensor_id;sensor_type;location;lat;lon;timestamp;P1;durP1;ratioP1;P2;durP2;ratioP2
8151;SDS011;4117;53.622;9.958;2023-04-23T00:02:00;1.90;;;1.40;;
8151;SDS011;4117;53.622;9.958;2023-04-23T00:04:28;1.83;;;1.30;;
8151;SDS011;4117;53.622;9.958;2023-04-23T00:07:00;2.67;;;1.37;;
8151;SDS011;4117;53.622;9.958;2023-04-23T00:09:28;1.83;;;1.47;;
8151;SDS011;4117;53.622;9.958;2023-04-23T00:11:56;1.97;;;1.20;;
8151;SDS011;4117;53.622;9.958;2023-04-23T00:14:23;2.43;;;1.40;;
8151;SDS011;4117;53.622;9.958;2023-04-23T00:16:51;1.37;;;1.23;;
8151;SDS011;4117;53.622;9.958;2023-04-23T00:19:18;1.20;;;1.10;;
8151;SDS011;4117;53.622;9.958;2023-04-23T00:21:45;1.57;;;1.20;;
8151;SDS011;4117;53.622;9.958;2023-04-23T00:24:14;2.43;;;1.37;;
8151;SDS011;4117;53.622;9.958;2023-04-23T00:26:41;1.93;;;1.50;;
8151;SDS011;4117;53.622;9.958;2023-04-23T00:29:08;1.80;;;1.20;;
8151;SDS011;4117;53.622;9.958;2023-04-23T00:31:34;1.77;;;1.13;;
8151;SDS011;4117;53.622;9.958;2023-04-23T00:34:01;1.67;;;1.30;;
8151;SDS011;4117;53.622;9.958;2023-04-23T00:36:28;2.07;;;1.50;;
8151;SDS011;4117;53.622;9.958;2023-04-23T00:38:56;1.70;;;1.33;;
8151;SDS011;4117;53.622;9.958;2023-04-23T00:41:24;2.73;;;1.63;;
8151;SDS011;4117;53.622;9.958;2023-04-23T00:43:52;1.57;;;1.30;;
8151;SDS011;4117;53.622;9.958;2023-04-23T00:46:21;2.03;;;1.47;;
8151;SDS011;4117;53.622;9.958;2023-04-23T00:48:48;1.50;;;1.30;;
8151;SDS011;4117;53.622;9.958;2023-04-23T00:51:17;2.70;;;1.40;;
8151;SDS011;4117;53.622;9.958;2023-04-23T00:53:44;1.53;;;1.30;;
8151;SDS011;4117;53.622;9.958;2023-04-23T00:56:11;1.70;;;1.20;;
8151;SDS011;4117;53.622;9.958;2023-04-23T00:58:39;2.40;;;1.43;;
8151;SDS011;4117;53.622;9.958;2023-04-23T01:01:06;2.23;;;1.47;;
8151;SDS011;4117;53.622;9.958;2023-04-23T01:03:34;1.93;;;1.30;;
8151;SDS011;4117;53.622;9.958;2023-04-23T01:06:01;2.43;;;1.40;;
8151;SDS011;4117;53.622;9.958;2023-04-23T01:08:32;1.80;;;1.43;;
8151;SDS011;4117;53.622;9.958;2023-04-23T01:11:00;2.80;;;1.33;;
8151;SDS011;4117;53.622;9.958;2023-04-23T01:13:28;2.30;;;1.50;;
8151;SDS011;4117;53.622;9.958;2023-04-23T01:15:57;2.23;;;1.63;;
8151;SDS011;4117;53.622;9.958;2023-04-23T01:18:24;4.90;;;1.73;;
8151;SDS011;4117;53.622;9.958;2023-04-23T01:20:50;2.93;;;1.83;;
8151;SDS011;4117;53.622;9.958;2023-04-23T01:23:19;2.60;;;1.53;;
8151;SDS011;4117;53.622;9.958;2023-04-23T01:25:46;1.60;;;1.50;;
8151;SDS011;4117;53.622;9.958;2023-04-23T01:28:13;4.03;;;1.60;;
8151;SDS011;4117;53.622;9.958;2023-04-23T01:30:41;5.17;;;1.47;;
8151;SDS011;4117;53.622;9.958;2023-04-23T01:33:09;3.33;;;1.80;;
8151;SDS011;4117;53.622;9.958;2023-04-23T01:35:36;1.53;;;1.43;;
8151;SDS011;4117;53.622;9.958;2023-04-23T01:38:04;2.60;;;1.63;;
8151;SDS011;4117;53.622;9.958;2023-04-23T01:40:35;2.60;;;1.60;;
8151;SDS011;4117;53.622;9.958;2023-04-23T01:43:03;1.70;;;1.33;;
8151;SDS011;4117;53.622;9.958;2023-04-23T01:45:30;2.53;;;1.60;;
8151;SDS011;4117;53.622;9.958;2023-04-23T01:47:57;1.87;;;1.27;;
8151;SDS011;4117;53.622;9.958;2023-04-23T01:50:24;1.83;;;1.37;;
8151;SDS011;4117;53.622;9.958;2023-04-23T01:52:53;2.40;;;1.57;;
8151;SDS011;4117;53.622;9.958;2023-04-23T01:55:20;3.17;;;1.80;;
8151;SDS011;4117;53.622;9.958;2023-04-23T01:57:49;3.23;;;1.80;;
8151;SDS011;4117;53.622;9.958;2023-04-23T02:02:49;4.07;;;2.57;;
8151;SDS011;4117;53.622;9.958;2023-04-23T02:05:18;4.50;;;2.33;;
8151;SDS011;4117;53.622;9.958;2023-04-23T02:07:45;5.20;;;2.67;;
8151;SDS011;4117;53.622;9.958;2023-04-23T02:10:13;4.77;;;2.70;;
8151;SDS011;4117;53.622;9.958;2023-04-23T02:12:41;4.17;;;2.77;;
8151;SDS011;4117;53.622;9.958;2023-04-23T02:15:10;6.67;;;2.97;;
8151;SDS011;4117;53.622;9.958;2023-04-23T02:17:38;4.93;;;2.50;;
8151;SDS011;4117;53.622;9.958;2023-04-23T02:20:06;6.87;;;3.33;;
8151;SDS011;4117;53.622;9.958;2023-04-23T02:22:34;4.63;;;2.70;;
8151;SDS011;4117;53.622;9.958;2023-04-23T02:25:02;5.90;;;2.97;;
8151;SDS011;4117;53.622;9.958;2023-04-23T02:27:29;5.30;;;2.87;;
8151;SDS011;4117;53.622;9.958;2023-04-23T02:29:57;6.20;;;2.73;;
8151;SDS011;4117;53.622;9.958;2023-04-23T02:32:25;4.87;;;2.73;;
8151;SDS011;4117;53.622;9.958;2023-04-23T02:34:53;6.10;;;2.87;;
8151;SDS011;4117;53.622;9.958;2023-04-23T02:37:20;5.73;;;2.73;;
8151;SDS011;4117;53.622;9.958;2023-04-23T02:39:47;4.63;;;2.50;;
8151;SDS011;4117;53.622;9.958;2023-04-23T02:42:14;5.63;;;2.63;;
8151;SDS011;4117;53.622;9.958;2023-04-23T02:44:40;4.33;;;2.77;;
8151;SDS011;4117;53.622;9.958;2023-04-23T02:47:07;5.57;;;2.80;;
8151;SDS011;4117;53.622;9.958;2023-04-23T02:49:36;5.90;;;3.03;;
8151;SDS011;4117;53.622;9.958;2023-04-23T02:52:03;4.53;;;2.50;;
8151;SDS011;4117;53.622;9.958;2023-04-23T02:54:30;5.03;;;2.07;;
8151;SDS011;4117;53.622;9.958;2023-04-23T02:56:57;2.60;;;1.80;;
8151;SDS011;4117;53.622;9.958;2023-04-23T02:59:24;4.27;;;2.50;;
8151;SDS011;4117;53.622;9.958;2023-04-23T03:01:51;3.40;;;2.33;;
8151;SDS011;4117;53.622;9.958;2023-04-23T03:04:18;4.07;;;2.13;;
8151;SDS011;4117;53.622;9.958;2023-04-23T03:06:47;4.43;;;2.17;;
8151;SDS011;4117;53.622;9.958;2023-04-23T03:09:13;4.00;;;2.50;;
8151;SDS011;4117;53.622;9.958;2023-04-23T03:11:40;2.50;;;1.83;;
8151;SDS011;4117;53.622;9.958;2023-04-23T03:14:07;3.97;;;2.43;;
8151;SDS011;4117;53.622;9.958;2023-04-23T03:16:35;3.63;;;2.03;;
8151;SDS011;4117;53.622;9.958;2023-04-23T03:19:02;3.87;;;2.03;;
8151;SDS011;4117;53.622;9.958;2023-04-23T03:21:28;3.73;;;1.90;;
8151;SDS011;4117;53.622;9.958;2023-04-23T03:23:57;2.97;;;2.10;;
8151;SDS011;4117;53.622;9.958;2023-04-23T03:26:24;5.23;;;2.30;;
8151;SDS011;4117;53.622;9.958;2023-04-23T03:28:50;4.03;;;2.10;;
8151;SDS011;4117;53.622;9.958;2023-04-23T03:31:17;3.73;;;2.37;;
8151;SDS011;4117;53.622;9.958;2023-04-23T03:33:44;3.80;;;1.83;;
8151;SDS011;4117;53.622;9.958;2023-04-23T03:36:11;2.67;;;1.40;;
8151;SDS011;4117;53.622;9.958;2023-04-23T03:38:39;4.60;;;2.50;;
8151;SDS011;4117;53.622;9.958;2023-04-23T03:41:07;3.23;;;1.80;;
8151;SDS011;4117;53.622;9.958;2023-04-23T03:43:34;3.40;;;2.30;;
8151;SDS011;4117;53.622;9.958;2023-04-23T03:46:01;3.27;;;2.00;;
8151;SDS011;4117;53.622;9.958;2023-04-23T03:48:28;2.23;;;1.63;;
8151;SDS011;4117;53.622;9.958;2023-04-23T03:50:56;2.20;;;1.77;;
8151;SDS011;4117;53.622;9.958;2023-04-23T03:53:23;2.77;;;2.00;;
8151;SDS011;4117;53.622;9.958;2023-04-23T03:55:50;2.37;;;1.70;;
8151;SDS011;4117;53.622;9.958;2023-04-23T03:58:18;3.13;;;1.60;;
8151;SDS011;4117;53.622;9.958;2023-04-23T04:00:45;2.43;;;1.70;;
8151;SDS011;4117;53.622;9.958;2023-04-23T04:03:12;3.10;;;1.70;;
8151;SDS011;4117;53.622;9.958;2023-04-23T04:05:39;3.53;;;1.50;;
8151;SDS011;4117;53.622;9.958;2023-04-23T04:08:06;3.20;;;1.73;;
8151;SDS011;4117;53.622;9.958;2023-04-23T04:10:33;3.50;;;1.90;;
8151;SDS011;4117;53.622;9.958;2023-04-23T04:13:00;2.47;;;1.53;;
8151;SDS011;4117;53.622;9.958;2023-04-23T04:15:28;3.73;;;1.70;;
8151;SDS011;4117;53.622;9.958;2023-04-23T04:17:56;1.50;;;1.40;;
8151;SDS011;4117;53.622;9.958;2023-04-23T04:20:23;2.27;;;1.47;;
8151;SDS011;4117;53.622;9.958;2023-04-23T04:22:55;1.67;;;1.27;;
8151;SDS011;4117;53.622;9.958;2023-04-23T04:25:22;2.33;;;1.30;;
8151;SDS011;4117;53.622;9.958;2023-04-23T04:27:49;1.93;;;1.67;;
8151;SDS011;4117;53.622;9.958;2023-04-23T04:30:16;1.73;;;1.20;;
8151;SDS011;4117;53.622;9.958;2023-04-23T04:32:44;4.93;;;1.43;;
8151;SDS011;4117;53.622;9.958;2023-04-23T04:35:14;2.37;;;1.37;;
8151;SDS011;4117;53.622;9.958;2023-04-23T04:37:42;1.60;;;1.40;;
8151;SDS011;4117;53.622;9.958;2023-04-23T04:40:09;2.93;;;1.50;;
8151;SDS011;4117;53.622;9.958;2023-04-23T04:42:37;2.80;;;1.53;;
8151;SDS011;4117;53.622;9.958;2023-04-23T04:45:04;2.37;;;1.20;;
8151;SDS011;4117;53.622;9.958;2023-04-23T04:47:32;1.57;;;1.30;;
8151;SDS011;4117;53.622;9.958;2023-04-23T04:50:01;3.83;;;1.47;;
8151;SDS011;4117;53.622;9.958;2023-04-23T04:52:28;3.50;;;1.57;;
8151;SDS011;4117;53.622;9.958;2023-04-23T04:54:55;2.23;;;1.50;;
8151;SDS011;4117;53.622;9.958;2023-04-23T04:57:22;4.13;;;1.10;;
8151;SDS011;4117;53.622;9.958;2023-04-23T04:59:49;1.40;;;1.10;;
8151;SDS011;4117;53.622;9.958;2023-04-23T05:02:16;2.73;;;1.33;;
8151;SDS011;4117;53.622;9.958;2023-04-23T05:04:44;1.27;;;1.10;;
8151;SDS011;4117;53.622;9.958;2023-04-23T05:07:12;1.80;;;1.40;;
8151;SDS011;4117;53.622;9.958;2023-04-23T05:09:39;2.20;;;1.60;;
8151;SDS011;4117;53.622;9.958;2023-04-23T05:12:06;1.70;;;1.07;;
8151;SDS011;4117;53.622;9.958;2023-04-23T05:14:33;1.47;;;1.17;;
8151;SDS011;4117;53.622;9.958;2023-04-23T05:17:00;1.67;;;1.10;;
8151;SDS011;4117;53.622;9.958;2023-04-23T05:19:27;1.87;;;1.30;;
8151;SDS011;4117;53.622;9.958;2023-04-23T05:21:53;3.00;;;1.30;;
8151;SDS011;4117;53.622;9.958;2023-04-23T05:24:22;1.67;;;1.13;;
8151;SDS011;4117;53.622;9.958;2023-04-23T05:26:49;1.93;;;1.33;;
8151;SDS011;4117;53.622;9.958;2023-04-23T05:29:16;0.97;;;0.90;;
8151;SDS011;4117;53.622;9.958;2023-04-23T05:31:43;1.73;;;1.20;;
8151;SDS011;4117;53.622;9.958;2023-04-23T05:34:11;1.23;;;1.13;;
8151;SDS011;4117;53.622;9.958;2023-04-23T05:36:38;4.00;;;1.00;;
8151;SDS011;4117;53.622;9.958;2023-04-23T05:39:05;1.00;;;0.90;;
8151;SDS011;4117;53.622;9.958;2023-04-23T05:41:34;2.93;;;1.53;;
8151;SDS011;4117;53.622;9.958;2023-04-23T05:44:01;1.27;;;1.10;;
8151;SDS011;4117;53.622;9.958;2023-04-23T05:46:28;1.77;;;0.93;;
8151;SDS011;4117;53.622;9.958;2023-04-23T05:48:55;1.73;;;1.10;;
8151;SDS011;4117;53.622;9.958;2023-04-23T05:51:22;1.47;;;1.00;;
8151;SDS011;4117;53.622;9.958;2023-04-23T05:53:49;1.53;;;1.10;;
8151;SDS011;4117;53.622;9.958;2023-04-23T05:56:16;0.80;;;0.80;;
8151;SDS011;4117;53.622;9.958;2023-04-23T05:58:44;1.83;;;1.10;;
8151;SDS011;4117;53.622;9.958;2023-04-23T06:01:11;1.47;;;0.97;;
8151;SDS011;4117;53.622;9.958;2023-04-23T06:03:38;2.10;;;1.33;;
8151;SDS011;4117;53.622;9.958;2023-04-23T06:06:09;1.30;;;0.93;;
8151;SDS011;4117;53.622;9.958;2023-04-23T06:08:36;1.80;;;1.20;;
8151;SDS011;4117;53.622;9.958;2023-04-23T06:11:03;2.23;;;1.30;;
8151;SDS011;4117;53.622;9.958;2023-04-23T06:13:30;1.20;;;1.10;;
8151;SDS011;4117;53.622;9.958;2023-04-23T06:15:59;1.40;;;1.10;;
8151;SDS011;4117;53.622;9.958;2023-04-23T06:18:26;2.53;;;1.13;;
8151;SDS011;4117;53.622;9.958;2023-04-23T06:20:53;2.27;;;1.10;;
8151;SDS011;4117;53.622;9.958;2023-04-23T06:23:21;1.57;;;1.23;;
8151;SDS011;4117;53.622;9.958;2023-04-23T06:25:48;1.63;;;1.00;;
8151;SDS011;4117;53.622;9.958;2023-04-23T06:28:15;1.10;;;1.00;;
8151;SDS011;4117;53.622;9.958;2023-04-23T06:30:42;1.73;;;1.20;;
8151;SDS011;4117;53.622;9.958;2023-04-23T06:33:11;1.37;;;1.03;;
8151;SDS011;4117;53.622;9.958;2023-04-23T06:35:38;1.77;;;1.10;;
8151;SDS011;4117;53.622;9.958;2023-04-23T06:38:05;1.30;;;1.00;;
8151;SDS011;4117;53.622;9.958;2023-04-23T06:40:32;2.03;;;1.03;;
8151;SDS011;4117;53.622;9.958;2023-04-23T06:42:59;1.57;;;1.00;;
8151;SDS011;4117;53.622;9.958;2023-04-23T06:45:29;2.07;;;1.10;;
8151;SDS011;4117;53.622;9.958;2023-04-23T06:47:57;2.33;;;1.10;;
8151;SDS011;4117;53.622;9.958;2023-04-23T06:50:25;1.07;;;0.80;;
8151;SDS011;4117;53.622;9.958;2023-04-23T06:52:52;1.17;;;0.90;;
8151;SDS011;4117;53.622;9.958;2023-04-23T06:55:20;1.00;;;0.87;;
8151;SDS011;4117;53.622;9.958;2023-04-23T06:57:50;1.20;;;0.97;;
8151;SDS011;4117;53.622;9.958;2023-04-23T07:00:17;2.03;;;1.03;;
8151;SDS011;4117;53.622;9.958;2023-04-23T07:02:44;1.33;;;1.07;;
8151;SDS011;4117;53.622;9.958;2023-04-23T07:05:11;1.70;;;1.30;;
8151;SDS011;4117;53.622;9.958;2023-04-23T07:07:40;1.20;;;0.97;;
8151;SDS011;4117;53.622;9.958;2023-04-23T07:10:08;1.50;;;1.10;;
8151;SDS011;4117;53.622;9.958;2023-04-23T07:12:36;2.03;;;0.97;;
8151;SDS011;4117;53.622;9.958;2023-04-23T07:15:03;5.20;;;1.13;;
8151;SDS011;4117;53.622;9.958;2023-04-23T07:17:31;1.90;;;1.23;;
8151;SDS011;4117;53.622;9.958;2023-04-23T07:19:58;1.30;;;0.97;;
8151;SDS011;4117;53.622;9.958;2023-04-23T07:22:28;0.80;;;0.70;;
8151;SDS011;4117;53.622;9.958;2023-04-23T07:24:58;1.93;;;1.10;;
8151;SDS011;4117;53.622;9.958;2023-04-23T07:27:25;1.40;;;1.03;;
8151;SDS011;4117;53.622;9.958;2023-04-23T07:29:52;1.47;;;1.00;;
8151;SDS011;4117;53.622;9.958;2023-04-23T07:32:19;1.73;;;1.23;;
8151;SDS011;4117;53.622;9.958;2023-04-23T07:34:47;2.77;;;1.10;;
8151;SDS011;4117;53.622;9.958;2023-04-23T07:37:15;1.90;;;1.27;;
8151;SDS011;4117;53.622;9.958;2023-04-23T07:39:42;2.03;;;1.40;;
8151;SDS011;4117;53.622;9.958;2023-04-23T07:42:10;1.20;;;1.07;;
8151;SDS011;4117;53.622;9.958;2023-04-23T07:44:38;2.30;;;1.13;;
8151;SDS011;4117;53.622;9.958;2023-04-23T07:47:06;3.27;;;1.00;;
8151;SDS011;4117;53.622;9.958;2023-04-23T07:49:33;0.70;;;0.67;;
8151;SDS011;4117;53.622;9.958;2023-04-23T07:52:00;1.93;;;1.20;;
8151;SDS011;4117;53.622;9.958;2023-04-23T07:54:27;1.60;;;1.20;;
8151;SDS011;4117;53.622;9.958;2023-04-23T07:56:54;1.47;;;1.13;;
8151;SDS011;4117;53.622;9.958;2023-04-23T07:59:22;1.77;;;1.00;;
8151;SDS011;4117;53.622;9.958;2023-04-23T08:01:50;1.93;;;1.37;;
8151;SDS011;4117;53.622;9.958;2023-04-23T08:04:17;2.80;;;1.13;;
8151;SDS011;4117;53.622;9.958;2023-04-23T08:06:44;2.20;;;1.40;;
8151;SDS011;4117;53.622;9.958;2023-04-23T08:09:11;2.40;;;1.20;;
8151;SDS011;4117;53.622;9.958;2023-04-23T08:11:39;1.47;;;1.17;;
8151;SDS011;4117;53.622;9.958;2023-04-23T08:14:06;2.53;;;1.30;;
8151;SDS011;4117;53.622;9.958;2023-04-23T08:16:34;1.50;;;0.80;;
8151;SDS011;4117;53.622;9.958;2023-04-23T08:19:01;1.30;;;1.03;;
8151;SDS011;4117;53.622;9.958;2023-04-23T08:21:29;1.03;;;0.90;;
8151;SDS011;4117;53.622;9.958;2023-04-23T08:23:56;1.03;;;0.93;;
8151;SDS011;4117;53.622;9.958;2023-04-23T08:26:23;1.37;;;1.07;;
8151;SDS011;4117;53.622;9.958;2023-04-23T08:28:50;1.63;;;1.10;;
8151;SDS011;4117;53.622;9.958;2023-04-23T08:31:18;1.70;;;1.17;;
8151;SDS011;4117;53.622;9.958;2023-04-23T08:33:47;1.27;;;0.77;;
8151;SDS011;4117;53.622;9.958;2023-04-23T08:36:14;1.97;;;1.40;;
8151;SDS011;4117;53.622;9.958;2023-04-23T08:38:41;2.23;;;1.37;;
8151;SDS011;4117;53.622;9.958;2023-04-23T08:41:09;1.77;;;1.10;;
8151;SDS011;4117;53.622;9.958;2023-04-23T08:43:40;3.83;;;1.07;;
8151;SDS011;4117;53.622;9.958;2023-04-23T08:46:10;1.30;;;0.90;;
8151;SDS011;4117;53.622;9.958;2023-04-23T08:48:39;2.53;;;1.40;;
8151;SDS011;4117;53.622;9.958;2023-04-23T08:51:08;1.73;;;1.27;;
8151;SDS011;4117;53.622;9.958;2023-04-23T08:53:38;2.00;;;1.20;;
8151;SDS011;4117;53.622;9.958;2023-04-23T08:56:09;2.17;;;1.13;;
8151;SDS011;4117;53.622;9.958;2023-04-23T08:58:38;1.07;;;0.97;;
8151;SDS011;4117;53.622;9.958;2023-04-23T09:01:06;2.43;;;0.97;;
8151;SDS011;4117;53.622;9.958;2023-04-23T09:03:35;2.27;;;1.20;;
8151;SDS011;4117;53.622;9.958;2023-04-23T09:06:03;2.17;;;1.30;;
8151;SDS011;4117;53.622;9.958;2023-04-23T09:08:31;1.00;;;0.83;;
8151;SDS011;4117;53.622;9.958;2023-04-23T09:10:59;2.17;;;1.37;;
8151;SDS011;4117;53.622;9.958;2023-04-23T09:13:28;1.80;;;1.30;;
8151;SDS011;4117;53.622;9.958;2023-04-23T09:15:56;1.97;;;1.10;;
8151;SDS011;4117;53.622;9.958;2023-04-23T09:18:23;1.83;;;1.23;;
8151;SDS011;4117;53.622;9.958;2023-04-23T09:20:50;1.50;;;1.10;;
8151;SDS011;4117;53.622;9.958;2023-04-23T09:23:20;1.50;;;1.17;;
8151;SDS011;4117;53.622;9.958;2023-04-23T09:25:49;1.73;;;1.30;;
8151;SDS011;4117;53.622;9.958;2023-04-23T09:28:16;1.57;;;1.17;;
8151;SDS011;4117;53.622;9.958;2023-04-23T09:30:43;1.93;;;1.33;;
8151;SDS011;4117;53.622;9.958;2023-04-23T09:33:11;1.07;;;0.87;;
8151;SDS011;4117;53.622;9.958;2023-04-23T09:35:38;2.57;;;1.23;;
8151;SDS011;4117;53.622;9.958;2023-04-23T09:38:07;1.50;;;1.10;;
8151;SDS011;4117;53.622;9.958;2023-04-23T09:40:34;2.00;;;1.60;;
8151;SDS011;4117;53.622;9.958;2023-04-23T09:43:04;2.07;;;1.50;;
8151;SDS011;4117;53.622;9.958;2023-04-23T09:45:32;2.20;;;1.40;;
8151;SDS011;4117;53.622;9.958;2023-04-23T09:48:00;2.73;;;1.40;;
8151;SDS011;4117;53.622;9.958;2023-04-23T09:50:30;2.30;;;1.50;;
8151;SDS011;4117;53.622;9.958;2023-04-23T09:52:58;2.03;;;1.50;;
8151;SDS011;4117;53.622;9.958;2023-04-23T09:55:31;2.10;;;1.60;;
8151;SDS011;4117;53.622;9.958;2023-04-23T09:58:04;3.00;;;1.00;;
8151;SDS011;4117;53.622;9.958;2023-04-23T10:00:32;1.80;;;1.33;;
8151;SDS011;4117;53.622;9.958;2023-04-23T10:03:01;2.03;;;1.23;;
8151;SDS011;4117;53.622;9.958;2023-04-23T10:05:29;2.10;;;1.63;;
8151;SDS011;4117;53.622;9.958;2023-04-23T10:07:56;1.90;;;1.50;;
8151;SDS011;4117;53.622;9.958;2023-04-23T10:10:23;2.43;;;1.33;;
8151;SDS011;4117;53.622;9.958;2023-04-23T10:12:51;4.37;;;1.80;;
8151;SDS011;4117;53.622;9.958;2023-04-23T10:15:21;2.63;;;1.33;;
8151;SDS011;4117;53.622;9.958;2023-04-23T10:17:53;2.20;;;1.50;;
8151;SDS011;4117;53.622;9.958;2023-04-23T10:20:21;3.60;;;2.00;;
8151;SDS011;4117;53.622;9.958;2023-04-23T10:22:48;1.77;;;1.47;;
8151;SDS011;4117;53.622;9.958;2023-04-23T10:25:18;3.57;;;1.63;;
8151;SDS011;4117;53.622;9.958;2023-04-23T10:27:46;3.57;;;1.60;;
8151;SDS011;4117;53.622;9.958;2023-04-23T10:30:14;2.90;;;1.60;;
8151;SDS011;4117;53.622;9.958;2023-04-23T10:32:43;2.10;;;1.37;;
8151;SDS011;4117;53.622;9.958;2023-04-23T10:35:13;2.40;;;1.73;;
8151;SDS011;4117;53.622;9.958;2023-04-23T10:37:40;1.20;;;1.10;;
8151;SDS011;4117;53.622;9.958;2023-04-23T10:40:09;2.50;;;1.67;;
8151;SDS011;4117;53.622;9.958;2023-04-23T10:42:38;2.13;;;1.43;;
8151;SDS011;4117;53.622;9.958;2023-04-23T10:45:14;2.37;;;1.70;;
8151;SDS011;4117;53.622;9.958;2023-04-23T10:47:44;3.83;;;2.17;;
8151;SDS011;4117;53.622;9.958;2023-04-23T10:50:17;2.63;;;1.73;;
8151;SDS011;4117;53.622;9.958;2023-04-23T10:52:48;2.03;;;1.43;;
8151;SDS011;4117;53.622;9.958;2023-04-23T10:55:18;3.20;;;1.90;;
8151;SDS011;4117;53.622;9.958;2023-04-23T10:58:00;2.50;;;1.70;;
8151;SDS011;4117;53.622;9.958;2023-04-23T11:00:29;2.00;;;1.50;;
8151;SDS011;4117;53.622;9.958;2023-04-23T11:03:30;3.23;;;2.10;;
8151;SDS011;4117;53.622;9.958;2023-04-23T11:06:00;3.73;;;1.77;;
8151;SDS011;4117;53.622;9.958;2023-04-23T11:08:27;2.03;;;1.40;;
8151;SDS011;4117;53.622;9.958;2023-04-23T11:10:56;2.30;;;1.77;;
8151;SDS011;4117;53.622;9.958;2023-04-23T11:13:24;4.03;;;2.27;;
8151;SDS011;4117;53.622;9.958;2023-04-23T11:21:54;2.03;;;1.23;;
8151;SDS011;4117;53.622;9.958;2023-04-23T11:24:22;5.80;;;2.90;;
8151;SDS011;4117;53.622;9.958;2023-04-23T11:26:50;5.00;;;2.33;;
8151;SDS011;4117;53.622;9.958;2023-04-23T11:29:18;2.50;;;1.83;;
8151;SDS011;4117;53.622;9.958;2023-04-23T11:31:46;2.73;;;1.90;;
8151;SDS011;4117;53.622;9.958;2023-04-23T11:34:15;3.07;;;1.93;;
8151;SDS011;4117;53.622;9.958;2023-04-23T11:36:42;3.00;;;1.87;;
8151;SDS011;4117;53.622;9.958;2023-04-23T11:39:10;3.53;;;1.80;;
8151;SDS011;4117;53.622;9.958;2023-04-23T11:41:37;2.40;;;1.80;;
8151;SDS011;4117;53.622;9.958;2023-04-23T11:44:04;2.77;;;1.67;;
8151;SDS011;4117;53.622;9.958;2023-04-23T11:46:32;2.43;;;1.70;;
8151;SDS011;4117;53.622;9.958;2023-04-23T11:48:59;3.07;;;1.90;;
8151;SDS011;4117;53.622;9.958;2023-04-23T11:51:27;3.37;;;1.83;;
8151;SDS011;4117;53.622;9.958;2023-04-23T11:54:00;3.23;;;1.93;;
8151;SDS011;4117;53.622;9.958;2023-04-23T11:56:28;1.87;;;1.67;;
8151;SDS011;4117;53.622;9.958;2023-04-23T11:58:59;3.80;;;1.80;;
8151;SDS011;4117;53.622;9.958;2023-04-23T12:01:38;2.37;;;1.57;;
8151;SDS011;4117;53.622;9.958;2023-04-23T12:04:09;3.33;;;1.80;;
8151;SDS011;4117;53.622;9.958;2023-04-23T12:06:38;3.60;;;1.93;;
8151;SDS011;4117;53.622;9.958;2023-04-23T12:09:07;3.50;;;1.67;;
8151;SDS011;4117;53.622;9.958;2023-04-23T12:11:35;2.37;;;1.37;;
8151;SDS011;4117;53.622;9.958;2023-04-23T12:14:02;3.40;;;1.67;;
8151;SDS011;4117;53.622;9.958;2023-04-23T12:16:33;1.57;;;1.20;;
8151;SDS011;4117;53.622;9.958;2023-04-23T12:19:01;2.17;;;1.50;;
8151;SDS011;4117;53.622;9.958;2023-04-23T12:21:29;2.23;;;1.67;;
8151;SDS011;4117;53.622;9.958;2023-04-23T12:23:58;2.07;;;1.67;;
8151;SDS011;4117;53.622;9.958;2023-04-23T12:26:28;2.30;;;1.60;;
8151;SDS011;4117;53.622;9.958;2023-04-23T12:28:57;3.17;;;1.60;;
8151;SDS011;4117;53.622;9.958;2023-04-23T12:31:26;1.60;;;1.37;;
8151;SDS011;4117;53.622;9.958;2023-04-23T12:33:57;1.80;;;1.23;;
8151;SDS011;4117;53.622;9.958;2023-04-23T12:36:25;3.23;;;1.90;;
8151;SDS011;4117;53.622;9.958;2023-04-23T12:38:53;2.60;;;1.80;;
8151;SDS011;4117;53.622;9.958;2023-04-23T12:41:22;2.40;;;1.60;;
8151;SDS011;4117;53.622;9.958;2023-04-23T12:43:49;2.20;;;1.13;;
8151;SDS011;4117;53.622;9.958;2023-04-23T12:46:16;1.60;;;1.17;;
8151;SDS011;4117;53.622;9.958;2023-04-23T12:48:42;1.57;;;1.20;;
8151;SDS011;4117;53.622;9.958;2023-04-23T12:51:09;1.83;;;1.17;;
8151;SDS011;4117;53.622;9.958;2023-04-23T12:53:36;3.90;;;1.50;;
8151;SDS011;4117;53.622;9.958;2023-04-23T12:56:04;1.30;;;1.10;;
8151;SDS011;4117;53.622;9.958;2023-04-23T12:58:32;2.37;;;1.50;;
8151;SDS011;4117;53.622;9.958;2023-04-23T13:00:59;4.37;;;1.37;;
8151;SDS011;4117;53.622;9.958;2023-04-23T13:03:26;3.50;;;1.67;;
8151;SDS011;4117;53.622;9.958;2023-04-23T13:05:53;2.17;;;1.30;;
8151;SDS011;4117;53.622;9.958;2023-04-23T13:08:23;1.93;;;1.37;;
8151;SDS011;4117;53.622;9.958;2023-04-23T13:10:50;1.60;;;1.20;;
8151;SDS011;4117;53.622;9.958;2023-04-23T13:13:17;1.33;;;1.20;;
8151;SDS011;4117;53.622;9.958;2023-04-23T13:15:45;2.47;;;1.33;;
8151;SDS011;4117;53.622;9.958;2023-04-23T13:18:12;1.47;;;1.00;;
8151;SDS011;4117;53.622;9.958;2023-04-23T13:20:39;1.53;;;1.10;;
8151;SDS011;4117;53.622;9.958;2023-04-23T13:23:07;2.63;;;1.23;;
8151;SDS011;4117;53.622;9.958;2023-04-23T13:25:35;0.97;;;0.90;;
8151;SDS011;4117;53.622;9.958;2023-04-23T13:28:02;1.23;;;1.10;;
8151;SDS011;4117;53.622;9.958;2023-04-23T13:30:29;1.00;;;0.87;;
8151;SDS011;4117;53.622;9.958;2023-04-23T13:32:58;1.80;;;1.27;;
8151;SDS011;4117;53.622;9.958;2023-04-23T13:35:25;1.13;;;0.93;;
8151;SDS011;4117;53.622;9.958;2023-04-23T13:37:52;2.37;;;1.20;;
8151;SDS011;4117;53.622;9.958;2023-04-23T13:40:19;1.60;;;1.17;;
8151;SDS011;4117;53.622;9.958;2023-04-23T13:42:46;1.10;;;0.97;;
8151;SDS011;4117;53.622;9.958;2023-04-23T13:45:14;1.20;;;0.90;;
8151;SDS011;4117;53.622;9.958;2023-04-23T13:47:41;1.07;;;0.97;;
8151;SDS011;4117;53.622;9.958;2023-04-23T13:50:10;1.07;;;0.87;;
8151;SDS011;4117;53.622;9.958;2023-04-23T13:52:37;1.30;;;1.00;;
8151;SDS011;4117;53.622;9.958;2023-04-23T13:55:04;1.30;;;1.00;;
8151;SDS011;4117;53.622;9.958;2023-04-23T13:57:33;1.20;;;1.00;;
8151;SDS011;4117;53.622;9.958;2023-04-23T14:00:02;3.00;;;0.93;;
8151;SDS011;4117;53.622;9.958;2023-04-23T14:02:29;1.30;;;1.07;;
8151;SDS011;4117;53.622;9.958;2023-04-23T14:04:56;1.20;;;0.80;;
8151;SDS011;4117;53.622;9.958;2023-04-23T14:07:25;1.27;;;0.83;;
8151;SDS011;4117;53.622;9.958;2023-04-23T14:09:52;1.40;;;1.00;;
8151;SDS011;4117;53.622;9.958;2023-04-23T14:12:19;1.03;;;0.83;;
8151;SDS011;4117;53.622;9.958;2023-04-23T14:14:48;1.30;;;1.20;;
8151;SDS011;4117;53.622;9.958;2023-04-23T14:17:15;1.40;;;0.87;;
8151;SDS011;4117;53.622;9.958;2023-04-23T14:19:42;1.30;;;1.10;;
8151;SDS011;4117;53.622;9.958;2023-04-23T14:22:09;1.00;;;0.73;;
8151;SDS011;4117;53.622;9.958;2023-04-23T14:24:43;1.17;;;0.97;;
8151;SDS011;4117;53.622;9.958;2023-04-23T14:27:11;1.10;;;1.00;;
8151;SDS011;4117;53.622;9.958;2023-04-23T14:29:39;0.97;;;0.80;;
8151;SDS011;4117;53.622;9.958;2023-04-23T14:32:17;0.93;;;0.83;;
8151;SDS011;4117;53.622;9.958;2023-04-23T14:34:44;0.77;;;0.77;;
8151;SDS011;4117;53.622;9.958;2023-04-23T14:37:11;1.60;;;1.10;;
8151;SDS011;4117;53.622;9.958;2023-04-23T14:39:39;1.87;;;1.00;;
8151;SDS011;4117;53.622;9.958;2023-04-23T14:42:06;1.60;;;0.97;;
8151;SDS011;4117;53.622;9.958;2023-04-23T14:44:33;2.50;;;1.00;;
8151;SDS011;4117;53.622;9.958;2023-04-23T14:47:00;1.20;;;1.10;;
8151;SDS011;4117;53.622;9.958;2023-04-23T14:49:27;1.10;;;0.90;;
8151;SDS011;4117;53.622;9.958;2023-04-23T14:51:54;1.27;;;0.93;;
8151;SDS011;4117;53.622;9.958;2023-04-23T14:54:22;1.20;;;0.97;;
8151;SDS011;4117;53.622;9.958;2023-04-23T14:56:50;0.80;;;0.80;;
8151;SDS011;4117;53.622;9.958;2023-04-23T14:59:17;1.10;;;1.00;;
8151;SDS011;4117;53.622;9.958;2023-04-23T15:01:44;2.13;;;1.23;;
8151;SDS011;4117;53.622;9.958;2023-04-23T15:04:11;0.93;;;0.90;;
8151;SDS011;4117;53.622;9.958;2023-04-23T15:06:38;2.20;;;1.00;;
8151;SDS011;4117;53.622;9.958;2023-04-23T15:09:05;2.60;;;1.10;;
8151;SDS011;4117;53.622;9.958;2023-04-23T15:11:33;1.30;;;1.00;;
8151;SDS011;4117;53.622;9.958;2023-04-23T15:14:07;1.00;;;0.83;;
8151;SDS011;4117;53.622;9.958;2023-04-23T15:16:43;1.17;;;1.00;;
8151;SDS011;4117;53.622;9.958;2023-04-23T15:19:10;1.03;;;0.73;;
8151;SDS011;4117;53.622;9.958;2023-04-23T15:21:37;0.90;;;0.70;;
8151;SDS011;4117;53.622;9.958;2023-04-23T15:24:07;1.10;;;0.80;;
8151;SDS011;4117;53.622;9.958;2023-04-23T15:26:33;0.73;;;0.67;;
8151;SDS011;4117;53.622;9.958;2023-04-23T15:29:01;1.43;;;0.93;;